createdAt,value
2019-05-30T00:01:06.371Z,89.25
2019-05-30T00:03:33.585Z,88.93
2019-05-30T00:06:00.862Z,88.55
2019-05-30T00:08:28.876Z,88.58
2019-05-30T00:10:56.529Z,88.56
2019-05-30T00:13:23.750Z,88.56
2019-05-30T00:15:50.782Z,88.53
2019-05-30T00:18:17.828Z,88.58
2019-05-30T00:20:46.732Z,88.59
2019-05-30T00:23:14.087Z,88.60
2019-05-30T00:25:41.124Z,88.74
2019-05-30T00:28:08.345Z,88.79
2019-05-30T00:30:35.746Z,88.74
2019-05-30T00:33:03.600Z,88.77
2019-05-30T00:35:31.772Z,88.88
2019-05-30T00:37:59.723Z,89.22
2019-05-30T00:40:27.230Z,89.29
2019-05-30T00:42:55.804Z,89.49
2019-05-30T00:45:23.373Z,89.62
2019-05-30T00:47:50.430Z,90.02
2019-05-30T00:50:17.469Z,89.87
2019-05-30T00:52:44.505Z,90.27
2019-05-30T00:55:11.874Z,90.88
2019-05-30T00:57:39.215Z,91.53
2019-05-30T01:00:07.168Z,92.09
2019-05-30T01:02:34.280Z,92.47
2019-05-30T01:05:03.372Z,92.86
2019-05-30T01:07:30.986Z,92.40
2019-05-30T01:09:59.105Z,92.31
2019-05-30T01:12:26.517Z,92.18
2019-05-30T01:14:53.876Z,92.04
2019-05-30T01:17:21.234Z,91.92
2019-05-30T01:19:48.277Z,91.91
2019-05-30T01:22:15.574Z,91.91
2019-05-30T01:24:42.623Z,91.96
2019-05-30T01:27:09.657Z,91.88
2019-05-30T01:29:36.982Z,91.79
2019-05-30T01:32:04.017Z,91.82
2019-05-30T01:34:31.075Z,91.78
2019-05-30T01:36:59.805Z,92.11
2019-05-30T01:39:26.979Z,92.30
2019-05-30T01:41:53.994Z,92.24
2019-05-30T01:44:21.269Z,92.66
2019-05-30T01:46:48.305Z,93.39
2019-05-30T01:49:15.358Z,93.48
2019-05-30T01:51:42.393Z,93.70
2019-05-30T01:54:09.431Z,93.82
2019-05-30T01:56:36.758Z,94.04
2019-05-30T01:59:04.795Z,93.84
2019-05-30T02:01:32.224Z,93.60
2019-05-30T02:03:59.438Z,93.51
2019-05-30T02:06:26.490Z,93.41
2019-05-30T02:08:53.858Z,93.24
2019-05-30T02:11:21.199Z,92.93
2019-05-30T02:13:48.240Z,92.81
2019-05-30T02:16:15.293Z,92.58
2019-05-30T02:18:42.589Z,92.46
2019-05-30T02:21:10.079Z,92.40
2019-05-30T02:23:37.466Z,92.35
2019-05-30T02:26:06.199Z,92.37
2019-05-30T02:28:33.710Z,92.36
2019-05-30T02:31:01.074Z,92.52
2019-05-30T02:33:29.503Z,92.42
2019-05-30T02:35:56.550Z,92.35
2019-05-30T02:38:23.953Z,92.30
2019-05-30T02:40:51.008Z,92.29
2019-05-30T02:43:18.354Z,92.39
2019-05-30T02:45:45.402Z,92.35
2019-05-30T02:48:12.756Z,92.39
2019-05-30T02:50:39.874Z,92.54
2019-05-30T02:53:08.414Z,92.76
2019-05-30T02:55:37.379Z,93.05
2019-05-30T02:58:06.216Z,93.13
2019-05-30T03:00:33.833Z,93.17
2019-05-30T03:03:01.853Z,93.13
2019-05-30T03:05:29.979Z,93.15
2019-05-30T03:07:57.013Z,93.25
2019-05-30T03:10:24.144Z,93.53
2019-05-30T03:12:51.183Z,93.62
2019-05-30T03:15:18.574Z,93.72
2019-05-30T03:17:45.651Z,93.51
2019-05-30T03:20:21.943Z,93.40
2019-05-30T03:22:41.683Z,93.35
2019-05-30T03:25:11.107Z,93.42
2019-05-30T03:27:37.533Z,93.22
2019-05-30T03:30:09.505Z,93.15
2019-05-30T03:35:06.201Z,92.68
2019-05-30T03:37:32.780Z,91.67
2019-05-30T03:40:00.159Z,88.48
2019-05-30T03:42:27.573Z,84.51
2019-05-30T03:44:54.927Z,79.34
2019-05-30T03:47:21.987Z,76.06
2019-05-30T03:49:49.036Z,73.24
2019-05-30T03:52:17.245Z,71.56
2019-05-30T03:54:44.873Z,68.27
2019-05-30T03:57:13.980Z,66.21
2019-05-30T03:59:41.028Z,61.91
2019-05-30T04:02:09.515Z,60.93
2019-05-30T04:04:37.458Z,59.21
2019-05-30T04:07:06.702Z,56.59
2019-05-30T04:09:33.822Z,55.20
2019-05-30T04:12:01.162Z,54.39
2019-05-30T04:14:28.204Z,51.13
2019-05-30T04:16:55.569Z,50.23
2019-05-30T04:19:22.672Z,48.35
2019-05-30T04:21:50.072Z,47.06
2019-05-30T04:24:19.617Z,43.66
2019-05-30T04:26:47.137Z,44.14
2019-05-30T04:29:15.036Z,43.45
2019-05-30T04:31:43.244Z,41.46
2019-05-30T04:34:12.444Z,40.70
2019-05-30T04:36:40.038Z,40.48
2019-05-30T04:39:08.629Z,38.57
2019-05-30T04:41:36.094Z,38.64
2019-05-30T04:44:03.445Z,37.06
2019-05-30T04:46:30.483Z,36.27
2019-05-30T04:48:57.534Z,33.55
2019-05-30T04:51:24.813Z,32.98
2019-05-30T04:53:51.866Z,32.26
2019-05-30T04:56:21.226Z,31.43
2019-05-30T04:58:47.928Z,30.23
2019-05-30T05:01:15.582Z,29.22
2019-05-30T05:03:46.593Z,28.37
2019-05-30T05:06:13.817Z,28.11
2019-05-30T05:08:41.282Z,28.94
2019-05-30T05:11:12.277Z,27.76
2019-05-30T05:13:37.331Z,27.57
2019-05-30T05:16:22.067Z,26.96
2019-05-30T05:18:33.450Z,27.07
2019-05-30T05:21:00.479Z,25.78
2019-05-30T05:23:27.528Z,26.42
2019-05-30T05:26:01.043Z,26.06
2019-05-30T05:28:24.065Z,25.89
2019-05-30T05:30:51.474Z,25.54
2019-05-30T05:33:18.838Z,25.58
2019-05-30T05:35:46.180Z,24.63
2019-05-30T05:38:13.248Z,24.00
2019-05-30T05:40:40.591Z,23.59
2019-05-30T05:43:07.645Z,23.68
2019-05-30T05:45:34.994Z,23.04
2019-05-30T05:48:02.041Z,23.04
2019-05-30T05:50:29.082Z,22.81
2019-05-30T05:52:56.380Z,23.24
2019-05-30T05:55:23.416Z,23.47
2019-05-30T05:57:50.717Z,23.04
2019-05-30T06:00:18.898Z,24.17
2019-05-30T06:02:46.083Z,25.44
2019-05-30T06:05:13.121Z,25.91
2019-05-30T06:07:40.468Z,26.79
2019-05-30T06:10:07.520Z,27.65
2019-05-30T06:12:34.874Z,28.01
2019-05-30T06:15:02.672Z,28.46
2019-05-30T06:17:29.869Z,29.31
2019-05-30T06:19:56.918Z,29.62
2019-05-30T06:22:23.962Z,29.91
2019-05-30T06:24:51.361Z,30.18
2019-05-30T06:27:20.055Z,28.86
2019-05-30T06:29:47.209Z,29.26
2019-05-30T06:32:14.550Z,28.62
2019-05-30T06:34:41.677Z,27.84
2019-05-30T06:37:11.900Z,27.84
2019-05-30T06:39:37.462Z,28.93
2019-05-30T06:42:04.727Z,28.01
2019-05-30T06:44:32.140Z,27.39
2019-05-30T06:46:59.481Z,28.94
2019-05-30T06:49:26.945Z,29.28
2019-05-30T06:51:54.052Z,29.19
2019-05-30T06:54:22.059Z,29.49
2019-05-30T06:56:50.182Z,29.09
2019-05-30T06:59:17.239Z,30.12
2019-05-30T07:01:44.535Z,30.63
2019-05-30T07:04:12.339Z,30.44
2019-05-30T07:06:39.837Z,30.36
2019-05-30T07:09:07.416Z,29.15
2019-05-30T07:11:34.773Z,28.37
2019-05-30T07:14:01.826Z,28.22
2019-05-30T07:16:29.514Z,28.14
2019-05-30T07:18:57.722Z,27.70
2019-05-30T07:21:25.528Z,28.55
2019-05-30T07:23:52.652Z,29.37
2019-05-30T07:26:19.689Z,29.87
2019-05-30T07:28:47.097Z,29.81
2019-05-30T07:31:14.374Z,29.76
2019-05-30T07:33:41.686Z,30.56
2019-05-30T07:36:09.041Z,30.42
2019-05-30T07:38:36.073Z,31.65
2019-05-30T07:41:03.126Z,30.40
2019-05-30T07:43:31.571Z,30.19
2019-05-30T07:45:59.176Z,31.59
2019-05-30T07:51:29.057Z,31.89
2019-05-30T07:53:56.161Z,31.83
2019-05-30T07:56:23.519Z,33.67
2019-05-30T07:58:50.548Z,35.17
2019-05-30T08:01:17.920Z,36.33
2019-05-30T08:03:44.970Z,34.36
2019-05-30T08:06:12.342Z,33.07
2019-05-30T08:08:39.702Z,33.52
2019-05-30T08:11:09.952Z,35.48
2019-05-30T08:13:35.738Z,34.80
2019-05-30T08:16:03.110Z,34.44
2019-05-30T08:18:30.137Z,32.91
2019-05-30T08:20:57.482Z,33.61
2019-05-30T08:23:24.863Z,33.80
2019-05-30T08:25:51.901Z,34.16
2019-05-30T08:28:18.999Z,34.51
2019-05-30T08:30:46.402Z,33.71
2019-05-30T08:33:13.438Z,33.72
2019-05-30T08:35:49.213Z,33.57
2019-05-30T08:38:09.531Z,33.92
2019-05-30T08:40:37.718Z,34.78
2019-05-30T08:43:06.250Z,36.46
2019-05-30T08:45:33.735Z,37.12
2019-05-30T08:48:00.802Z,37.95
2019-05-30T08:50:28.201Z,38.51
2019-05-30T08:52:55.247Z,39.76
2019-05-30T08:55:22.297Z,39.40
2019-05-30T08:57:49.341Z,41.70
2019-05-30T09:00:16.389Z,40.06
2019-05-30T09:02:43.424Z,39.90
2019-05-30T09:05:10.823Z,37.52
2019-05-30T09:07:38.254Z,36.28
2019-05-30T09:10:05.464Z,37.47
2019-05-30T09:12:32.505Z,37.38
2019-05-30T09:14:59.540Z,36.96
2019-05-30T09:17:27.978Z,36.16
2019-05-30T09:19:55.010Z,34.82
2019-05-30T09:22:22.502Z,33.15
2019-05-30T09:24:49.837Z,34.92
2019-05-30T09:27:16.987Z,31.94
2019-05-30T09:29:44.754Z,30.87
2019-05-30T09:32:12.209Z,31.96
2019-05-30T09:34:40.257Z,31.93
2019-05-30T09:37:08.270Z,31.00
2019-05-30T09:39:35.614Z,33.33
2019-05-30T09:42:02.666Z,32.09
2019-05-30T09:44:30.009Z,31.25
2019-05-30T09:46:57.389Z,31.92
2019-05-30T09:49:24.720Z,29.77
2019-05-30T09:51:52.083Z,28.85
2019-05-30T09:54:19.130Z,29.63
2019-05-30T09:56:46.637Z,29.89
2019-05-30T09:59:14.037Z,28.13
2019-05-30T10:01:42.603Z,29.30
2019-05-30T10:04:10.390Z,27.89
2019-05-30T10:06:37.436Z,26.50
2019-05-30T10:09:04.788Z,25.93
2019-05-30T10:11:32.964Z,26.27
2019-05-30T10:14:00.322Z,26.91
2019-05-30T10:16:27.369Z,26.63
2019-05-30T10:18:54.724Z,25.03
2019-05-30T10:21:21.771Z,24.98
2019-05-30T10:23:49.449Z,24.76
2019-05-30T10:26:16.725Z,25.77
2019-05-30T10:28:44.974Z,27.25
2019-05-30T10:31:12.491Z,28.43
2019-05-30T10:33:39.540Z,27.13
2019-05-30T10:36:06.926Z,25.64
2019-05-30T10:38:33.984Z,22.25
2019-05-30T10:41:01.021Z,24.26
2019-05-30T10:43:29.401Z,23.86
2019-05-30T10:45:57.497Z,22.83
2019-05-30T10:48:24.594Z,21.06
2019-05-30T10:50:52.297Z,19.90
2019-05-30T10:53:19.756Z,19.67
2019-05-30T10:55:48.090Z,20.44
2019-05-30T10:58:15.596Z,18.70
2019-05-30T11:00:42.953Z,18.14
2019-05-30T11:03:10.003Z,18.54
2019-05-30T11:05:37.343Z,17.91
2019-05-30T11:08:06.357Z,18.07
2019-05-30T11:10:33.635Z,17.58
2019-05-30T11:13:05.840Z,18.54
2019-05-30T11:15:29.418Z,17.55
2019-05-30T11:17:57.730Z,17.96
2019-05-30T11:20:24.847Z,17.22
2019-05-30T11:22:53.057Z,17.00
2019-05-30T11:25:20.750Z,18.33
2019-05-30T11:27:48.578Z,16.99
2019-05-30T11:30:16.029Z,18.21
2019-05-30T11:32:43.187Z,17.92
2019-05-30T11:35:10.439Z,18.00
2019-05-30T11:37:37.765Z,18.48
2019-05-30T11:40:04.821Z,17.10
2019-05-30T11:42:31.852Z,15.89
2019-05-30T11:44:59.945Z,15.61
2019-05-30T11:47:27.036Z,15.78
2019-05-30T11:49:54.088Z,16.18
2019-05-30T11:52:21.120Z,15.34
2019-05-30T11:54:49.784Z,15.22
2019-05-30T11:57:16.863Z,15.34
2019-05-30T11:59:44.395Z,15.00
2019-05-30T12:02:11.477Z,16.17
2019-05-30T12:04:38.792Z,15.39
2019-05-30T12:07:05.829Z,15.10
2019-05-30T12:09:33.187Z,15.47
2019-05-30T12:12:01.440Z,15.11
2019-05-30T12:14:28.899Z,14.86
2019-05-30T12:16:55.941Z,14.96
2019-05-30T12:19:22.991Z,14.95
2019-05-30T12:21:51.475Z,14.06
2019-05-30T12:24:19.060Z,14.38
2019-05-30T12:26:46.085Z,15.17
2019-05-30T12:29:13.133Z,15.16
2019-05-30T12:31:40.416Z,14.42
2019-05-30T12:34:07.468Z,14.14
2019-05-30T12:36:34.514Z,13.88
2019-05-30T12:39:02.652Z,13.79
2019-05-30T12:41:29.877Z,14.39
2019-05-30T12:43:57.015Z,14.88
2019-05-30T12:46:24.036Z,16.23
2019-05-30T12:48:51.173Z,17.16
2019-05-30T12:51:18.610Z,18.55
2019-05-30T12:53:45.659Z,18.51
2019-05-30T12:56:12.699Z,19.49
2019-05-30T12:58:40.083Z,19.09
2019-05-30T13:01:07.133Z,19.06
2019-05-30T13:03:34.178Z,19.26
2019-05-30T13:06:03.427Z,19.77
2019-05-30T13:08:31.561Z,22.40
2019-05-30T13:10:59.442Z,22.63
2019-05-30T13:13:26.526Z,23.26
2019-05-30T13:15:54.542Z,23.77
2019-05-30T13:18:21.670Z,24.62
2019-05-30T13:20:49.064Z,27.02
2019-05-30T13:23:17.153Z,26.03
2019-05-30T13:25:44.465Z,26.45
2019-05-30T13:28:11.505Z,24.66
2019-05-30T13:30:38.616Z,25.66
2019-05-30T13:33:07.041Z,25.72
2019-05-30T13:35:34.092Z,24.72
2019-05-30T13:38:01.442Z,25.46
2019-05-30T13:40:28.552Z,24.14
2019-05-30T13:42:55.607Z,25.72
2019-05-30T13:45:22.661Z,24.46
2019-05-30T13:47:49.766Z,24.30
2019-05-30T13:50:16.829Z,27.40
2019-05-30T13:52:43.889Z,28.00
2019-05-30T13:55:12.103Z,27.81
2019-05-30T13:57:39.209Z,28.85
2019-05-30T14:00:06.264Z,29.32
2019-05-30T14:02:33.669Z,28.21
2019-05-30T14:05:02.134Z,28.10
2019-05-30T14:07:29.333Z,27.45
2019-05-30T14:09:56.654Z,27.85
2019-05-30T14:12:23.690Z,27.19
2019-05-30T14:14:50.748Z,29.13
2019-05-30T14:17:17.777Z,29.50
2019-05-30T14:19:45.148Z,31.61
2019-05-30T14:22:12.521Z,29.11
2019-05-30T14:24:39.553Z,30.94
2019-05-30T14:27:07.614Z,30.63
2019-05-30T14:29:34.817Z,29.42
2019-05-30T14:32:03.808Z,29.53
2019-05-30T14:34:30.894Z,30.09
2019-05-30T14:36:57.921Z,28.25
2019-05-30T14:39:24.959Z,29.54
2019-05-30T14:41:52.004Z,29.30
2019-05-30T14:44:20.343Z,30.13
2019-05-30T14:46:47.692Z,30.75
2019-05-30T14:49:14.750Z,31.56
2019-05-30T14:51:41.774Z,31.28
2019-05-30T14:54:08.921Z,31.60
2019-05-30T14:56:35.935Z,31.38
2019-05-30T14:59:02.969Z,31.58
2019-05-30T15:01:30.020Z,32.14
2019-05-30T15:03:57.054Z,32.05
2019-05-30T15:06:24.117Z,32.48
2019-05-30T15:08:51.149Z,32.20
2019-05-30T15:11:18.211Z,32.64
2019-05-30T15:13:45.236Z,32.56
2019-05-30T15:16:13.057Z,33.11
2019-05-30T15:18:40.194Z,33.27
2019-05-30T15:21:08.222Z,33.71
2019-05-30T15:23:35.315Z,34.29
2019-05-30T15:26:02.717Z,33.30
2019-05-30T15:28:29.749Z,33.88
2019-05-30T15:30:56.781Z,34.00
2019-05-30T15:33:24.163Z,33.95
2019-05-30T15:35:51.519Z,34.18
2019-05-30T15:38:18.636Z,34.52
2019-05-30T15:40:45.682Z,34.21
2019-05-30T15:43:13.454Z,34.04
2019-05-30T15:45:40.512Z,34.07
2019-05-30T15:48:08.275Z,33.11
2019-05-30T15:50:35.481Z,34.53
2019-05-30T15:53:02.555Z,33.95
2019-05-30T15:55:29.572Z,34.93
2019-05-30T15:57:56.626Z,33.89
2019-05-30T16:00:23.661Z,34.27
2019-05-30T16:02:50.728Z,34.04
2019-05-30T16:05:18.690Z,34.31
2019-05-30T16:07:45.790Z,34.32
2019-05-30T16:10:12.975Z,34.29
2019-05-30T16:12:40.415Z,35.03
2019-05-30T16:15:07.592Z,34.96
2019-05-30T16:17:34.632Z,35.46
2019-05-30T16:20:01.667Z,34.74
2019-05-30T16:22:30.087Z,35.30
2019-05-30T16:24:57.878Z,36.81
2019-05-30T16:27:26.096Z,35.73
2019-05-30T16:29:53.433Z,35.56
2019-05-30T16:32:20.487Z,35.99
2019-05-30T16:34:47.521Z,35.60
2019-05-30T16:40:05.189Z,35.88
2019-05-30T16:42:23.768Z,35.95
2019-05-30T16:44:50.875Z,36.91
2019-05-30T16:47:18.420Z,37.00
2019-05-30T16:49:45.452Z,37.82
2019-05-30T16:52:12.843Z,37.77
2019-05-30T16:54:39.929Z,37.55
2019-05-30T16:57:06.966Z,37.86
2019-05-30T16:59:34.012Z,37.91
2019-05-30T17:02:01.347Z,38.15
2019-05-30T17:04:28.392Z,38.14
2019-05-30T17:06:55.425Z,38.27
2019-05-30T17:09:23.493Z,38.40
2019-05-30T17:11:50.965Z,38.65
2019-05-30T17:14:18.012Z,38.65
2019-05-30T17:16:45.050Z,39.33
2019-05-30T17:19:12.536Z,39.90
2019-05-30T17:21:39.604Z,40.23
2019-05-30T17:24:06.621Z,39.90
2019-05-30T17:26:34.731Z,39.71
2019-05-30T17:29:01.784Z,40.48
2019-05-30T17:31:28.845Z,41.39
2019-05-30T17:33:55.977Z,41.89
2019-05-30T17:36:24.197Z,42.13
2019-05-30T17:38:51.312Z,41.88
2019-05-30T17:41:18.728Z,42.02
2019-05-30T17:43:45.744Z,42.11
2019-05-30T17:46:12.781Z,41.93
2019-05-30T17:48:39.833Z,42.37
2019-05-30T17:51:06.864Z,42.52
2019-05-30T17:53:33.915Z,42.30
2019-05-30T17:56:00.950Z,43.80
2019-05-30T17:58:28.358Z,44.48
2019-05-30T18:00:57.266Z,46.29
2019-05-30T18:03:24.552Z,45.86
2019-05-30T18:05:51.585Z,46.15
2019-05-30T18:08:18.637Z,46.56
2019-05-30T18:10:53.781Z,45.38
2019-05-30T18:13:14.409Z,45.79
2019-05-30T18:15:41.793Z,47.13
2019-05-30T18:18:09.150Z,47.37
2019-05-30T18:20:47.733Z,47.17
2019-05-30T18:23:05.288Z,47.22
2019-05-30T18:25:32.336Z,46.74
2019-05-30T18:27:59.375Z,46.16
2019-05-30T18:30:26.420Z,46.61
2019-05-30T18:32:53.454Z,46.60
2019-05-30T18:35:20.503Z,46.06
2019-05-30T18:37:47.531Z,47.06
2019-05-30T18:40:14.931Z,47.14
2019-05-30T18:42:42.019Z,47.76
2019-05-30T18:45:09.445Z,48.08
2019-05-30T18:47:36.478Z,48.46
2019-05-30T18:50:03.519Z,48.62
2019-05-30T18:52:30.564Z,50.00
2019-05-30T18:54:57.614Z,49.13
2019-05-30T18:57:24.653Z,47.73
2019-05-30T18:59:52.028Z,47.66
2019-05-30T19:02:19.065Z,47.38
2019-05-30T19:04:46.437Z,47.95
2019-05-30T19:07:13.470Z,48.25
2019-05-30T19:09:40.590Z,48.10
2019-05-30T19:12:07.552Z,48.39
2019-05-30T19:14:37.121Z,48.75
2019-05-30T19:17:03.628Z,48.96
2019-05-30T19:19:31.872Z,49.06
2019-05-30T19:21:58.859Z,49.69
2019-05-30T19:24:26.060Z,50.07
2019-05-30T19:26:53.120Z,49.78
2019-05-30T19:29:20.195Z,49.63
2019-05-30T19:31:47.228Z,49.81
2019-05-30T19:34:14.507Z,50.48
2019-05-30T19:36:41.560Z,50.48
2019-05-30T19:39:08.593Z,50.41
2019-05-30T19:41:52.629Z,50.49
2019-05-30T19:44:04.373Z,50.64
2019-05-30T19:46:32.275Z,51.27
2019-05-30T19:48:59.372Z,51.23
2019-05-30T19:51:26.694Z,51.14
2019-05-30T19:53:54.054Z,51.23
2019-05-30T19:56:21.101Z,51.27
2019-05-30T19:58:48.143Z,51.44
2019-05-30T20:01:15.198Z,51.50
2019-05-30T20:03:46.713Z,51.41
2019-05-30T20:06:11.337Z,51.45
2019-05-30T20:08:51.319Z,52.21
2019-05-30T20:11:07.481Z,52.34
2019-05-30T20:13:35.043Z,52.53
2019-05-30T20:16:02.218Z,52.69
2019-05-30T20:18:29.253Z,53.19
2019-05-30T20:20:57.913Z,53.33
2019-05-30T20:23:25.033Z,53.27
2019-05-30T20:25:52.086Z,53.34
2019-05-30T20:28:19.129Z,53.39
2019-05-30T20:30:46.525Z,53.65
2019-05-30T20:33:13.571Z,53.66
2019-05-30T20:35:41.748Z,53.75
2019-05-30T20:38:09.720Z,54.08
2019-05-30T20:40:36.954Z,54.28
2019-05-30T20:43:04.079Z,54.26
2019-05-30T20:45:31.113Z,54.43
2019-05-30T20:47:58.157Z,54.46
2019-05-30T20:50:25.200Z,54.58
2019-05-30T20:52:52.236Z,54.59
2019-05-30T20:55:19.838Z,54.67
2019-05-30T20:57:47.042Z,54.76
2019-05-30T21:00:14.078Z,54.66
2019-05-30T21:02:41.298Z,54.70
2019-05-30T21:05:08.584Z,54.85
2019-05-30T21:07:35.991Z,54.86
2019-05-30T21:10:02.971Z,55.07
2019-05-30T21:12:37.741Z,54.81
2019-05-30T21:14:59.086Z,55.29
2019-05-30T21:17:26.136Z,55.42
2019-05-30T21:19:53.164Z,55.24
2019-05-30T21:22:20.469Z,55.40
2019-05-30T21:24:47.825Z,55.44
2019-05-30T21:27:14.877Z,55.33
2019-05-30T21:29:43.085Z,55.41
2019-05-30T21:32:10.608Z,56.06
2019-05-30T21:34:37.987Z,56.03
2019-05-30T21:37:05.548Z,55.99
2019-05-30T21:39:32.569Z,56.18
2019-05-30T21:41:59.623Z,56.21
2019-05-30T21:44:26.659Z,56.31
2019-05-30T21:46:53.788Z,56.32
2019-05-30T21:49:20.810Z,56.26
2019-05-30T21:51:47.861Z,56.60
2019-05-30T21:54:14.897Z,56.89
2019-05-30T21:56:41.994Z,56.89
2019-05-30T21:59:08.986Z,56.84
2019-05-30T22:01:36.022Z,56.93
2019-05-30T22:04:03.316Z,56.83
2019-05-30T22:06:30.420Z,56.89
2019-05-30T22:08:57.477Z,56.93
2019-05-30T22:11:24.510Z,57.04
2019-05-30T22:13:52.071Z,57.30
2019-05-30T22:16:19.064Z,57.40
2019-05-30T22:18:46.115Z,57.38
2019-05-30T22:21:13.148Z,57.40
2019-05-30T22:23:40.561Z,57.76
2019-05-30T22:26:07.591Z,57.64
2019-05-30T22:28:34.645Z,57.38
2019-05-30T22:31:01.679Z,57.70
2019-05-30T22:33:28.973Z,57.58
2019-05-30T22:35:56.004Z,57.81
2019-05-30T22:38:23.362Z,58.42
2019-05-30T22:40:50.397Z,58.63
2019-05-30T22:43:25.172Z,59.25
2019-05-30T22:45:48.186Z,59.37
2019-05-30T22:48:15.245Z,59.32
2019-05-30T22:50:42.289Z,59.07
2019-05-30T22:53:09.336Z,58.98
2019-05-30T22:55:36.375Z,58.90
2019-05-30T22:58:03.424Z,59.07
2019-05-30T23:00:30.458Z,59.28
2019-05-30T23:02:57.497Z,59.43
2019-05-30T23:05:24.793Z,59.87
2019-05-30T23:07:51.831Z,60.29
2019-05-30T23:10:18.877Z,60.70
2019-05-30T23:12:46.231Z,60.50
2019-05-30T23:15:13.275Z,60.54
2019-05-30T23:17:40.314Z,60.23
2019-05-30T23:20:07.362Z,60.15
2019-05-30T23:22:34.397Z,60.18
2019-05-30T23:25:01.473Z,60.47
2019-05-30T23:27:28.485Z,60.56
2019-05-30T23:29:55.952Z,60.62
2019-05-30T23:32:23.143Z,60.76
2019-05-30T23:34:50.227Z,60.78
2019-05-30T23:37:17.225Z,61.00
2019-05-30T23:39:44.410Z,61.01
2019-05-30T23:42:11.453Z,61.01
2019-05-30T23:44:38.499Z,61.17
2019-05-30T23:47:05.855Z,61.20
2019-05-30T23:49:32.869Z,61.25
2019-05-30T23:52:00.427Z,61.27
2019-05-30T23:54:28.710Z,61.43
2019-05-30T23:56:56.490Z,61.48
2019-05-30T23:59:24.553Z,61.65
